Terminal Aerodrome Forecast
Issued by NWS Shreveport, LA

Home | Current Version | Previous Version | Text Only | Print | Product List | Glossary On
Versions: 1 2 3 4 5 6 7 8 9 10 11 12 13 14 15
000
FTUS44 KSHV 060536
TAFELD
TAF
KELD 060536Z 0606/0706 00000KT P6SM BKN250
      TEMPO 0610/0614 5SM BR BKN004
     FM061400 19006KT P6SM BKN010
     FM061600 20008KT P6SM SCT030
     FM062000 19010G17KT P6SM SCT250
     FM070000 16006KT P6SM BKN250=

USA.gov is the U.S. government's official web portal to all federal, state and local government web resources and services.